createdAt,value
2018-12-04T00:00:44.321Z,99212.00
2018-12-04T00:03:12.560Z,99215.00
2018-12-04T00:05:40.764Z,99212.00
2018-12-04T00:08:08.975Z,99208.00
2018-12-04T00:10:37.265Z,99207.00
2018-12-04T00:13:05.470Z,99208.00
2018-12-04T00:15:33.633Z,99203.00
2018-12-04T00:18:01.842Z,99209.00
2018-12-04T00:20:30.055Z,99212.00
2018-12-04T00:22:58.222Z,99207.00
2018-12-04T00:25:26.400Z,99212.00
2018-12-04T00:27:54.640Z,99215.00
2018-12-04T00:30:22.820Z,99215.00
2018-12-04T00:32:50.972Z,99219.00
2018-12-04T00:35:19.174Z,99226.00
2018-12-04T00:37:47.345Z,99237.00
2018-12-04T00:40:15.522Z,99242.00
2018-12-04T00:42:43.761Z,99246.00
2018-12-04T00:45:12.026Z,99235.00
2018-12-04T00:53:34.743Z,99229.00
2018-12-04T00:56:02.939Z,99226.00
2018-12-04T00:58:31.104Z,99234.00
2018-12-04T01:00:59.391Z,99236.00
2018-12-04T01:03:27.566Z,99243.00
2018-12-04T01:05:55.739Z,99245.00
2018-12-04T01:08:23.945Z,99248.00
2018-12-04T01:10:52.268Z,99247.00
2018-12-04T01:13:20.437Z,99256.00
2018-12-04T01:15:48.691Z,99254.00
2018-12-04T01:18:16.968Z,99263.00
2018-12-04T01:20:45.128Z,99264.00
2018-12-04T01:23:13.324Z,99252.00
2018-12-04T01:25:41.529Z,99258.00
2018-12-04T01:28:09.866Z,99262.00
2018-12-04T01:30:38.034Z,99262.00
2018-12-04T01:33:06.208Z,99264.00
2018-12-04T01:35:34.414Z,99260.00
2018-12-04T01:38:02.577Z,99262.00
2018-12-04T01:40:30.809Z,99266.00
2018-12-04T01:42:58.978Z,99272.00
2018-12-04T01:45:27.192Z,99275.00
2018-12-04T01:47:55.382Z,99267.00
2018-12-04T01:50:23.558Z,99263.00
2018-12-04T01:52:51.748Z,99267.00
2018-12-04T01:55:19.928Z,99264.00
2018-12-04T01:57:48.154Z,99263.00
2018-12-04T02:00:16.320Z,99264.00
2018-12-04T02:02:44.527Z,99257.00
2018-12-04T02:05:12.742Z,99258.00
2018-12-04T02:07:40.949Z,99256.00
2018-12-04T02:10:09.155Z,99257.00
2018-12-04T02:12:37.362Z,99271.00
2018-12-04T02:15:05.695Z,99273.00
2018-12-04T02:17:33.887Z,99270.00
2018-12-04T02:20:02.126Z,99264.00
2018-12-04T02:22:30.321Z,99270.00
2018-12-04T02:24:58.526Z,99274.00
2018-12-04T02:27:26.704Z,99276.00
2018-12-04T02:29:54.899Z,99276.00
2018-12-04T02:32:23.061Z,99279.00
2018-12-04T02:34:51.234Z,99279.00
2018-12-04T02:37:19.468Z,99279.00
2018-12-04T02:39:47.638Z,99273.00
2018-12-04T02:42:17.755Z,99288.00
2018-12-04T02:44:45.943Z,99281.00
2018-12-04T02:47:14.118Z,99283.00
2018-12-04T02:49:42.354Z,99288.00
2018-12-04T02:52:10.552Z,99281.00
2018-12-04T02:54:38.737Z,99289.00
2018-12-04T02:57:06.987Z,99289.00
2018-12-04T02:59:35.326Z,99294.00
2018-12-04T03:02:03.833Z,99288.00
2018-12-04T03:04:31.999Z,99289.00
2018-12-04T03:07:00.196Z,99295.00
2018-12-04T03:09:28.372Z,99290.00
2018-12-04T03:11:56.608Z,99297.00
2018-12-04T03:14:24.850Z,99295.00
2018-12-04T03:16:53.075Z,99291.00
2018-12-04T03:19:21.255Z,99296.00
2018-12-04T03:21:49.425Z,99293.00
2018-12-04T03:24:17.621Z,99295.00
2018-12-04T03:26:46.305Z,99298.00
2018-12-04T03:29:14.461Z,99292.00
2018-12-04T03:31:42.642Z,99295.00
2018-12-04T03:34:10.868Z,99291.00
2018-12-04T03:36:39.029Z,99290.00
2018-12-04T03:39:07.868Z,99291.00
2018-12-04T03:41:36.091Z,99292.00
2018-12-04T03:44:04.335Z,99299.00
2018-12-04T03:46:32.535Z,99312.00
2018-12-04T03:49:00.744Z,99309.00
2018-12-04T03:51:28.915Z,99326.00
2018-12-04T03:53:57.114Z,99328.00
2018-12-04T03:56:25.283Z,99327.00
2018-12-04T03:58:53.522Z,99327.00
2018-12-04T04:01:21.732Z,99332.00
2018-12-04T04:03:49.961Z,99333.00
2018-12-04T04:06:18.140Z,99327.00
2018-12-04T04:08:46.339Z,99330.00
2018-12-04T04:11:14.497Z,99333.00
2018-12-04T04:13:42.667Z,99340.00
2018-12-04T04:16:10.905Z,99333.00
2018-12-04T04:18:39.070Z,99334.00
2018-12-04T04:21:07.285Z,99334.00
2018-12-04T04:23:35.481Z,99333.00
2018-12-04T04:26:03.758Z,99339.00
2018-12-04T04:28:31.971Z,99336.00
2018-12-04T04:31:00.131Z,99338.00
2018-12-04T04:33:28.296Z,99342.00
2018-12-04T04:35:58.091Z,99338.00
2018-12-04T04:38:26.273Z,99346.00
2018-12-04T04:40:54.522Z,99345.00
2018-12-04T04:43:22.690Z,99349.00
2018-12-04T04:45:50.867Z,99343.00
2018-12-04T04:48:19.061Z,99347.00
2018-12-04T04:50:47.261Z,99346.00
2018-12-04T04:53:15.439Z,99345.00
2018-12-04T04:55:43.666Z,99345.00
2018-12-04T04:58:11.832Z,99345.00
2018-12-04T05:00:40.042Z,99345.00
2018-12-04T05:03:08.259Z,99350.00
2018-12-04T05:05:37.446Z,99360.00
2018-12-04T05:08:05.618Z,99359.00
2018-12-04T05:10:33.823Z,99367.00
2018-12-04T05:13:02.013Z,99356.00
2018-12-04T05:15:30.196Z,99357.00
2018-12-04T05:17:58.429Z,99365.00
2018-12-04T05:20:26.649Z,99369.00
2018-12-04T05:22:54.810Z,99369.00
2018-12-04T05:25:23.118Z,99374.00
2018-12-04T05:27:51.316Z,99381.00
2018-12-04T05:30:19.596Z,99380.00
2018-12-04T05:32:47.841Z,99380.00
2018-12-04T05:35:16.039Z,99380.00
2018-12-04T05:37:44.212Z,99387.00
2018-12-04T05:40:12.409Z,99389.00
2018-12-04T05:42:40.589Z,99396.00
2018-12-04T05:45:08.845Z,99403.00
2018-12-04T05:47:37.013Z,99414.00
2018-12-04T05:50:06.119Z,99408.00
2018-12-04T05:52:35.219Z,99424.00
2018-12-04T05:55:03.531Z,99408.00
2018-12-04T05:57:31.701Z,99410.00
2018-12-04T05:59:59.878Z,99421.00
2018-12-04T06:02:28.077Z,99424.00
2018-12-04T06:04:56.281Z,99435.00
2018-12-04T06:07:24.521Z,99435.00
2018-12-04T06:09:52.746Z,99426.00
2018-12-04T06:12:20.972Z,99438.00
2018-12-04T06:14:49.161Z,99442.00
2018-12-04T06:17:17.471Z,99448.00
2018-12-04T06:19:45.626Z,99453.00
2018-12-04T06:22:13.825Z,99453.00
2018-12-04T06:24:42.083Z,99461.00
2018-12-04T06:27:10.391Z,99462.00
2018-12-04T06:29:38.560Z,99460.00
2018-12-04T06:32:06.734Z,99472.00
2018-12-04T06:34:34.973Z,99469.00
2018-12-04T06:37:03.142Z,99481.00
2018-12-04T06:39:31.366Z,99482.00
2018-12-04T06:41:59.580Z,99483.00
2018-12-04T06:44:27.803Z,99495.00
2018-12-04T06:46:55.973Z,99498.00
2018-12-04T06:49:24.211Z,99500.00
2018-12-04T06:51:52.406Z,99509.00
2018-12-04T06:54:20.620Z,99513.00
2018-12-04T06:56:48.855Z,99515.00
2018-12-04T06:59:17.006Z,99518.00
2018-12-04T07:01:45.175Z,99524.00
2018-12-04T07:04:13.357Z,99525.00
2018-12-04T07:06:41.617Z,99530.00
2018-12-04T07:09:09.820Z,99523.00
2018-12-04T07:11:37.983Z,99531.00
2018-12-04T07:14:06.145Z,99536.00
2018-12-04T07:16:34.341Z,99545.00
2018-12-04T07:19:02.573Z,99545.00
2018-12-04T07:21:30.746Z,99551.00
2018-12-04T07:23:58.959Z,99555.00
2018-12-04T07:26:27.187Z,99562.00
2018-12-04T07:28:55.389Z,99565.00
2018-12-04T07:31:23.560Z,99579.00
2018-12-04T07:33:51.769Z,99584.00
2018-12-04T07:36:19.980Z,99589.00
2018-12-04T07:38:48.162Z,99590.00
2018-12-04T07:41:16.377Z,99600.00
2018-12-04T07:43:44.578Z,99596.00
2018-12-04T07:46:12.849Z,99609.00
2018-12-04T07:48:41.055Z,99606.00
2018-12-04T07:51:09.294Z,99611.00
2018-12-04T07:53:37.504Z,99616.00
2018-12-04T07:56:05.706Z,99608.00
2018-12-04T07:58:33.886Z,99616.00
2018-12-04T08:01:02.089Z,99632.00
2018-12-04T08:03:30.262Z,99635.00
2018-12-04T08:06:00.416Z,99641.00
2018-12-04T08:08:28.606Z,99645.00
2018-12-04T08:10:56.810Z,99656.00
2018-12-04T08:13:25.124Z,99656.00
2018-12-04T08:15:53.292Z,99650.00
2018-12-04T08:18:21.465Z,99657.00
2018-12-04T08:20:49.651Z,99665.00
2018-12-04T08:23:17.854Z,99677.00
2018-12-04T08:25:46.105Z,99675.00
2018-12-04T08:28:14.321Z,99671.00
2018-12-04T08:30:42.537Z,99681.00
2018-12-04T08:33:10.697Z,99692.00
2018-12-04T08:35:38.850Z,99698.00
2018-12-04T08:38:07.117Z,99706.00
2018-12-04T08:40:35.282Z,99707.00
2018-12-04T08:43:03.472Z,99713.00
2018-12-04T08:45:32.408Z,99706.00
2018-12-04T08:48:00.568Z,99732.00
2018-12-04T08:50:28.734Z,99734.00
2018-12-04T08:52:56.935Z,99740.00
2018-12-04T08:55:25.140Z,99743.00
2018-12-04T08:58:13.104Z,99751.00
2018-12-04T09:00:41.413Z,99770.00
2018-12-04T09:03:09.576Z,99767.00
2018-12-04T09:05:38.385Z,99780.00
2018-12-04T09:08:09.376Z,99787.00
2018-12-04T09:10:36.757Z,99794.00
2018-12-04T09:13:05.041Z,99800.00
2018-12-04T09:15:33.248Z,99818.00
2018-12-04T09:18:01.422Z,99813.00
2018-12-04T09:20:29.696Z,99820.00
2018-12-04T09:22:58.578Z,99819.00
2018-12-04T09:25:27.080Z,99839.00
2018-12-04T09:27:55.884Z,99842.00
2018-12-04T09:30:24.234Z,99846.00
2018-12-04T09:32:52.397Z,99853.00
2018-12-04T09:35:20.665Z,99869.00
2018-12-04T09:37:48.829Z,99871.00
2018-12-04T09:40:16.993Z,99883.00
2018-12-04T09:42:45.269Z,99905.00
2018-12-04T09:45:13.564Z,99903.00
2018-12-04T09:47:41.836Z,99904.00
2018-12-04T09:50:10.060Z,99914.00
2018-12-04T09:52:38.308Z,99917.00
2018-12-04T09:55:06.855Z,99928.00
2018-12-04T09:57:35.051Z,99929.00
2018-12-04T10:00:04.294Z,99950.00
2018-12-04T10:02:32.461Z,99940.00
2018-12-04T10:05:00.625Z,99951.00
2018-12-04T10:07:28.889Z,99951.00
2018-12-04T10:10:00.583Z,99950.00
2018-12-04T10:12:27.302Z,99945.00
2018-12-04T10:14:55.499Z,99959.00
2018-12-04T10:17:23.688Z,99954.00
2018-12-04T10:19:51.882Z,99969.00
2018-12-04T10:22:20.095Z,99974.00
2018-12-04T10:24:48.330Z,99985.00
2018-12-04T10:27:16.547Z,99987.00
2018-12-04T10:29:44.770Z,99999.00
2018-12-04T10:32:12.963Z,100000.00
2018-12-04T10:34:41.129Z,100004.00
2018-12-04T10:37:09.391Z,100004.00
2018-12-04T10:39:37.562Z,100005.00
2018-12-04T10:42:05.789Z,100004.00
2018-12-04T10:44:34.042Z,100021.00
2018-12-04T10:47:02.266Z,100010.00
2018-12-04T10:49:30.442Z,100019.00
2018-12-04T10:51:58.629Z,100027.00
2018-12-04T10:54:26.824Z,100028.00
2018-12-04T10:56:55.089Z,100030.00
2018-12-04T10:59:23.338Z,100040.00
2018-12-04T11:04:53.098Z,100054.00
2018-12-04T11:07:21.312Z,100055.00
2018-12-04T11:09:49.508Z,100054.00
2018-12-04T11:12:17.760Z,100054.00
2018-12-04T11:14:45.924Z,100067.00
2018-12-04T11:17:14.157Z,100079.00
2018-12-04T11:19:42.311Z,100086.00
2018-12-04T11:22:10.474Z,100081.00
2018-12-04T11:24:38.675Z,100082.00
2018-12-04T11:27:06.867Z,100087.00
2018-12-04T11:29:35.236Z,100101.00
2018-12-04T11:32:03.492Z,100108.00
2018-12-04T11:34:31.725Z,100109.00
2018-12-04T11:36:59.987Z,100110.00
2018-12-04T11:39:28.157Z,100115.00
2018-12-04T11:41:56.379Z,100114.00
2018-12-04T11:44:24.553Z,100123.00
2018-12-04T11:46:52.730Z,100135.00
2018-12-04T11:49:21.105Z,100147.00
2018-12-04T11:51:49.251Z,100150.00
2018-12-04T11:54:17.411Z,100151.00
2018-12-04T11:56:45.649Z,100154.00
2018-12-04T11:59:13.933Z,100155.00
2018-12-04T12:01:42.100Z,100166.00
2018-12-04T12:04:10.309Z,100174.00
2018-12-04T12:06:38.509Z,100185.00
2018-12-04T12:09:08.717Z,100183.00
2018-12-04T12:11:36.924Z,100179.00
2018-12-04T12:14:05.152Z,100188.00
2018-12-04T12:16:33.405Z,100188.00
2018-12-04T12:19:01.600Z,100198.00
2018-12-04T12:21:29.768Z,100205.00
2018-12-04T12:23:57.981Z,100207.00
2018-12-04T12:26:26.149Z,100213.00
2018-12-04T12:28:54.309Z,100215.00
2018-12-04T12:31:22.509Z,100221.00
2018-12-04T12:33:50.674Z,100220.00
2018-12-04T12:36:18.958Z,100235.00
2018-12-04T12:38:47.157Z,100243.00
2018-12-04T12:41:15.411Z,100241.00
2018-12-04T12:43:44.530Z,100236.00
2018-12-04T12:46:12.999Z,100249.00
2018-12-04T12:48:41.289Z,100253.00
2018-12-04T12:51:09.487Z,100250.00
2018-12-04T12:53:37.684Z,100244.00
2018-12-04T12:56:05.883Z,100253.00
2018-12-04T12:58:34.088Z,100269.00
2018-12-04T13:01:02.312Z,100253.00
2018-12-04T13:03:30.475Z,100257.00
2018-12-04T13:05:58.682Z,100265.00
2018-12-04T13:08:31.977Z,100271.00
2018-12-04T13:11:00.191Z,100275.00
2018-12-04T13:13:28.644Z,100285.00
2018-12-04T13:15:57.096Z,100291.00
2018-12-04T13:18:25.339Z,100300.00
2018-12-04T13:20:53.575Z,100299.00
2018-12-04T13:23:21.789Z,100306.00
2018-12-04T13:25:49.998Z,100331.00
2018-12-04T13:28:18.159Z,100321.00
2018-12-04T13:30:46.444Z,100326.00
2018-12-04T13:33:14.656Z,100325.00
2018-12-04T13:35:42.858Z,100337.00
2018-12-04T13:38:11.077Z,100345.00
2018-12-04T13:40:39.683Z,100347.00
2018-12-04T13:43:07.859Z,100356.00
2018-12-04T13:45:36.052Z,100362.00
2018-12-04T13:48:04.270Z,100369.00
2018-12-04T13:50:32.441Z,100385.00
2018-12-04T13:53:00.650Z,100387.00
2018-12-04T13:55:28.855Z,100387.00
2018-12-04T13:57:57.006Z,100394.00
2018-12-04T14:00:25.218Z,100385.00
2018-12-04T14:02:53.405Z,100397.00
2018-12-04T14:05:21.622Z,100406.00
2018-12-04T14:07:49.869Z,100410.00
2018-12-04T14:10:18.171Z,100420.00
2018-12-04T14:12:46.346Z,100413.00
2018-12-04T14:15:14.891Z,100419.00
2018-12-04T14:17:43.110Z,100427.00
2018-12-04T14:20:11.323Z,100430.00
2018-12-04T14:22:39.573Z,100428.00
2018-12-04T14:25:07.873Z,100442.00
2018-12-04T14:27:36.075Z,100450.00
2018-12-04T14:30:08.300Z,100451.00
2018-12-04T14:32:36.555Z,100462.00
2018-12-04T14:35:05.110Z,100466.00
2018-12-04T14:37:33.351Z,100476.00
2018-12-04T14:40:01.585Z,100474.00
2018-12-04T14:42:30.018Z,100473.00
2018-12-04T14:44:58.261Z,100488.00
2018-12-04T14:47:26.465Z,100494.00
2018-12-04T14:49:54.832Z,100500.00
2018-12-04T14:52:23.125Z,100500.00
2018-12-04T14:54:51.407Z,100510.00
2018-12-04T14:57:19.618Z,100513.00
2018-12-04T14:59:47.991Z,100517.00
2018-12-04T15:02:16.271Z,100521.00
2018-12-04T15:04:44.434Z,100538.00
2018-12-04T15:07:12.679Z,100538.00
2018-12-04T15:09:41.047Z,100539.00
2018-12-04T15:12:09.231Z,100547.00
2018-12-04T15:14:37.444Z,100554.00
2018-12-04T15:17:05.604Z,100556.00
2018-12-04T15:19:33.906Z,100574.00
2018-12-04T15:22:02.130Z,100575.00
2018-12-04T15:24:30.303Z,100576.00
2018-12-04T15:26:58.564Z,100579.00
2018-12-04T15:29:26.783Z,100582.00
2018-12-04T15:31:54.951Z,100587.00
2018-12-04T15:34:23.157Z,100595.00
2018-12-04T15:36:56.524Z,100596.00
2018-12-04T15:39:21.669Z,100609.00
2018-12-04T15:41:49.920Z,100611.00
2018-12-04T15:44:18.621Z,100616.00
2018-12-04T15:46:46.827Z,100624.00
2018-12-04T15:49:15.009Z,100626.00
2018-12-04T15:51:43.385Z,100627.00
2018-12-04T15:54:11.987Z,100633.00
2018-12-04T15:56:40.233Z,100639.00
2018-12-04T15:59:08.459Z,100645.00
2018-12-04T16:01:36.619Z,100656.00
2018-12-04T16:04:04.922Z,100658.00
2018-12-04T16:06:33.268Z,100666.00
2018-12-04T16:09:01.512Z,100663.00
2018-12-04T16:11:29.685Z,100678.00
2018-12-04T16:13:57.887Z,100679.00
2018-12-04T16:16:26.074Z,100684.00
2018-12-04T16:18:54.288Z,100682.00
2018-12-04T16:21:22.492Z,100692.00
2018-12-04T16:23:50.660Z,100698.00
2018-12-04T16:26:18.825Z,100697.00
2018-12-04T16:28:47.033Z,100709.00
2018-12-04T16:31:15.209Z,100725.00
2018-12-04T16:33:43.937Z,100726.00
2018-12-04T16:36:12.292Z,100725.00
2018-12-04T16:38:40.459Z,100731.00
2018-12-04T16:41:08.769Z,100741.00
2018-12-04T16:43:37.175Z,100746.00
2018-12-04T16:46:05.425Z,100740.00
2018-12-04T16:48:33.614Z,100740.00
2018-12-04T16:51:07.235Z,100747.00
2018-12-04T16:53:35.476Z,100750.00
2018-12-04T16:56:03.634Z,100752.00
2018-12-04T16:58:32.183Z,100751.00
2018-12-04T17:01:00.371Z,100760.00
2018-12-04T17:03:28.584Z,100767.00
2018-12-04T17:05:56.793Z,100769.00
2018-12-04T17:08:24.975Z,100771.00
2018-12-04T17:10:53.153Z,100775.00
2018-12-04T17:13:21.413Z,100777.00
2018-12-04T17:15:50.070Z,100784.00
2018-12-04T17:18:18.236Z,100778.00
2018-12-04T17:20:46.452Z,100791.00
2018-12-04T17:23:37.765Z,100784.00
2018-12-04T17:26:06.091Z,100791.00
2018-12-04T17:28:34.288Z,100791.00
2018-12-04T17:31:02.620Z,100793.00
2018-12-04T17:33:30.835Z,100792.00
2018-12-04T17:35:59.028Z,100803.00
2018-12-04T17:38:27.227Z,100819.00
2018-12-04T17:40:55.504Z,100814.00
2018-12-04T17:43:23.756Z,100825.00
2018-12-04T17:45:51.970Z,100831.00
2018-12-04T17:48:20.561Z,100821.00
2018-12-04T17:50:48.776Z,100825.00
2018-12-04T17:53:17.051Z,100818.00
2018-12-04T17:55:45.262Z,100825.00
2018-12-04T17:58:13.454Z,100832.00
2018-12-04T18:00:41.702Z,100834.00
2018-12-04T18:03:09.980Z,100838.00
2018-12-04T18:05:38.145Z,100850.00
2018-12-04T18:08:06.333Z,100850.00
2018-12-04T18:10:34.537Z,100862.00
2018-12-04T18:13:02.759Z,100870.00
2018-12-04T18:15:30.929Z,100879.00
2018-12-04T18:17:59.161Z,100868.00
2018-12-04T18:20:27.338Z,100873.00
2018-12-04T18:22:55.516Z,100871.00
2018-12-04T18:25:23.882Z,100876.00
2018-12-04T18:27:52.049Z,100885.00
2018-12-04T18:30:20.247Z,100895.00
2018-12-04T18:32:48.433Z,100903.00
2018-12-04T18:35:17.510Z,100908.00
2018-12-04T18:37:45.695Z,100923.00
2018-12-04T18:40:14.009Z,100921.00
2018-12-04T18:42:42.217Z,100912.00
2018-12-04T18:45:10.436Z,100925.00
2018-12-04T18:47:38.661Z,100940.00
2018-12-04T18:50:08.126Z,100935.00
2018-12-04T18:52:36.527Z,100934.00
2018-12-04T18:55:04.940Z,100947.00
2018-12-04T18:57:33.160Z,100947.00
2018-12-04T19:00:01.450Z,100955.00
2018-12-04T19:02:29.698Z,100956.00
2018-12-04T19:04:57.921Z,100956.00
2018-12-04T19:07:26.262Z,100964.00
2018-12-04T19:09:54.481Z,100967.00
2018-12-04T19:12:22.706Z,100969.00
2018-12-04T19:14:50.881Z,100976.00
2018-12-04T19:17:19.092Z,100974.00
2018-12-04T19:19:47.362Z,100970.00
2018-12-04T19:22:15.596Z,100976.00
2018-12-04T19:24:44.930Z,100989.00
2018-12-04T19:27:13.707Z,100986.00
2018-12-04T19:29:41.919Z,100995.00
2018-12-04T19:32:10.161Z,101000.00
2018-12-04T19:34:39.245Z,101002.00
2018-12-04T19:37:08.447Z,100998.00
2018-12-04T19:39:37.165Z,101008.00
2018-12-04T19:42:05.385Z,100996.00
2018-12-04T19:44:35.135Z,101005.00
2018-12-04T19:47:03.711Z,101009.00
2018-12-04T19:49:31.870Z,101020.00
2018-12-04T19:52:00.056Z,101017.00
2018-12-04T19:54:28.322Z,101025.00
2018-12-04T19:56:56.553Z,101027.00
2018-12-04T19:59:24.747Z,101040.00
2018-12-04T20:01:52.941Z,101038.00
2018-12-04T20:04:21.242Z,101042.00
2018-12-04T20:06:50.340Z,101046.00
2018-12-04T20:09:18.607Z,101058.00
2018-12-04T20:11:46.955Z,101064.00
2018-12-04T20:14:15.128Z,101064.00
2018-12-04T20:16:43.297Z,101071.00
2018-12-04T20:19:11.510Z,101064.00
2018-12-04T20:21:39.735Z,101065.00
2018-12-04T20:24:07.931Z,101067.00
2018-12-04T20:26:36.152Z,101075.00
2018-12-04T20:29:04.475Z,101083.00
2018-12-04T20:31:32.660Z,101078.00
2018-12-04T20:34:00.865Z,101090.00
2018-12-04T20:36:29.048Z,101093.00
2018-12-04T20:38:57.374Z,101099.00
2018-12-04T20:41:26.967Z,101101.00
2018-12-04T20:43:55.374Z,101100.00
2018-12-04T20:46:23.805Z,101110.00
2018-12-04T20:48:52.000Z,101106.00
2018-12-04T20:51:20.865Z,101112.00
2018-12-04T20:53:49.599Z,101120.00
2018-12-04T20:56:17.902Z,101120.00
2018-12-04T20:58:46.319Z,101128.00
2018-12-04T21:01:14.552Z,101127.00
2018-12-04T21:03:42.771Z,101123.00
2018-12-04T21:06:10.943Z,101138.00
2018-12-04T21:08:39.199Z,101142.00
2018-12-04T21:11:07.462Z,101140.00
2018-12-04T21:13:36.434Z,101150.00
2018-12-04T21:16:05.609Z,101147.00
2018-12-04T21:18:34.114Z,101145.00
2018-12-04T21:21:02.374Z,101149.00
2018-12-04T21:23:30.544Z,101142.00
2018-12-04T21:25:59.437Z,101156.00
2018-12-04T21:28:27.614Z,101151.00
2018-12-04T21:31:01.313Z,101157.00
2018-12-04T21:36:42.013Z,101176.00
2018-12-04T21:39:24.151Z,101173.00
2018-12-04T21:42:00.406Z,101178.00
2018-12-04T21:44:34.601Z,101176.00
2018-12-04T21:50:07.857Z,101189.00
2018-12-04T21:52:36.028Z,101192.00
2018-12-04T21:55:04.937Z,101192.00
2018-12-04T21:57:33.184Z,101197.00
2018-12-04T22:00:01.362Z,101204.00
2018-12-04T22:02:29.543Z,101198.00
2018-12-04T22:04:57.768Z,101197.00
2018-12-04T22:07:25.932Z,101197.00
2018-12-04T22:09:54.110Z,101212.00
2018-12-04T22:12:22.334Z,101211.00
2018-12-04T22:14:50.505Z,101213.00
2018-12-04T22:17:18.677Z,101215.00
2018-12-04T22:19:46.884Z,101218.00
2018-12-04T22:22:15.064Z,101224.00
2018-12-04T22:24:43.228Z,101223.00
2018-12-04T22:27:11.467Z,101230.00
2018-12-04T22:29:39.645Z,101243.00
2018-12-04T22:32:07.814Z,101236.00
2018-12-04T22:34:36.016Z,101254.00
2018-12-04T22:37:04.261Z,101250.00
2018-12-04T22:39:32.419Z,101252.00
2018-12-04T22:42:00.633Z,101262.00
2018-12-04T22:44:28.844Z,101269.00
2018-12-04T22:46:57.087Z,101269.00
2018-12-04T22:49:25.339Z,101274.00
2018-12-04T22:51:53.505Z,101270.00
2018-12-04T22:54:21.721Z,101277.00
2018-12-04T22:56:49.935Z,101291.00
2018-12-04T22:59:18.105Z,101286.00
2018-12-04T23:01:46.370Z,101288.00
2018-12-04T23:04:14.663Z,101285.00
2018-12-04T23:06:42.871Z,101289.00
2018-12-04T23:09:11.121Z,101284.00
2018-12-04T23:11:39.815Z,101281.00
2018-12-04T23:14:08.060Z,101294.00
2018-12-04T23:16:36.473Z,101292.00
2018-12-04T23:19:05.475Z,101310.00
2018-12-04T23:21:33.637Z,101314.00
2018-12-04T23:24:01.804Z,101314.00
2018-12-04T23:26:30.041Z,101306.00
2018-12-04T23:28:58.196Z,101308.00
2018-12-04T23:31:26.433Z,101308.00
2018-12-04T23:33:54.659Z,101308.00
2018-12-04T23:36:22.867Z,101305.00
2018-12-04T23:38:51.040Z,101311.00
2018-12-04T23:41:19.245Z,101322.00
2018-12-04T23:43:47.418Z,101315.00
2018-12-04T23:46:15.642Z,101319.00
2018-12-04T23:48:44.025Z,101326.00
2018-12-04T23:51:12.188Z,101327.00
2018-12-04T23:53:40.356Z,101323.00
2018-12-04T23:56:08.555Z,101323.00
2018-12-04T23:58:36.731Z,101327.00
